createdAt,value
2022-11-14T00:02:29.983Z,4.55
2022-11-14T00:05:35.441Z,4.46
2022-11-14T00:08:38.167Z,4.54
2022-11-14T00:11:40.884Z,4.53
2022-11-14T00:14:43.642Z,4.49
2022-11-14T00:17:46.719Z,4.47
2022-11-14T00:20:52.461Z,4.42
2022-11-14T00:23:55.419Z,4.40
2022-11-14T00:26:58.190Z,4.37
2022-11-14T00:30:00.903Z,4.34
2022-11-14T00:33:04.053Z,4.31
2022-11-14T00:36:08.585Z,4.29
2022-11-14T00:39:13.894Z,4.28
2022-11-14T00:42:16.538Z,4.24
2022-11-14T00:45:19.502Z,4.20
2022-11-14T00:48:22.384Z,4.17
2022-11-14T00:51:26.621Z,4.12
2022-11-14T00:54:29.273Z,4.09
2022-11-14T00:57:32.326Z,4.07
2022-11-14T01:00:35.524Z,4.04
2022-11-14T01:03:38.251Z,4.01
2022-11-14T01:06:42.654Z,4.00
2022-11-14T01:09:45.775Z,3.96
2022-11-14T01:12:48.742Z,3.98
2022-11-14T01:15:52.429Z,3.92
2022-11-14T01:18:55.094Z,3.91
2022-11-14T01:22:03.227Z,3.92
2022-11-14T01:25:09.620Z,3.88
2022-11-14T01:28:15.037Z,3.84
2022-11-14T01:31:19.875Z,3.81
2022-11-14T01:34:22.650Z,3.81
2022-11-14T01:37:26.727Z,3.78
2022-11-14T01:40:29.546Z,3.67
2022-11-14T01:43:34.426Z,3.75
2022-11-14T01:46:40.100Z,3.72
2022-11-14T01:49:46.925Z,3.70
2022-11-14T01:52:51.330Z,3.74
2022-11-14T01:55:56.355Z,3.68
2022-11-14T01:59:04.771Z,3.62
2022-11-14T02:02:13.461Z,3.58
2022-11-14T02:05:18.449Z,3.59
2022-11-14T02:08:24.293Z,3.55
2022-11-14T02:11:30.982Z,3.52
2022-11-14T02:14:35.527Z,3.50
2022-11-14T02:17:38.218Z,3.49
2022-11-14T02:20:43.802Z,3.47
2022-11-14T02:23:46.516Z,3.45
2022-11-14T02:26:49.249Z,3.43
2022-11-14T02:29:51.995Z,3.42
2022-11-14T02:33:10.391Z,3.41
2022-11-14T02:36:15.566Z,3.36
2022-11-14T02:39:18.710Z,3.35
2022-11-14T02:42:21.466Z,3.32
2022-11-14T02:45:24.625Z,3.32
2022-11-14T02:48:27.437Z,3.30
2022-11-14T02:51:32.015Z,3.30
2022-11-14T02:54:34.706Z,3.29
2022-11-14T02:57:37.842Z,3.27
2022-11-14T03:01:05.990Z,3.26
2022-11-14T03:04:04.594Z,3.24
2022-11-14T03:07:08.776Z,3.24
2022-11-14T03:10:12.039Z,3.28
2022-11-14T03:13:15.263Z,3.32
2022-11-14T03:16:18.373Z,3.40
2022-11-14T03:19:21.280Z,3.51
2022-11-14T03:22:25.773Z,3.73
2022-11-14T03:25:28.836Z,3.82
2022-11-14T03:28:31.870Z,4.08
2022-11-14T03:31:35.432Z,4.09
2022-11-14T03:34:38.539Z,4.24
2022-11-14T03:37:43.091Z,4.36
2022-11-14T03:40:45.968Z,4.37
2022-11-14T03:43:48.708Z,4.47
2022-11-14T03:46:53.151Z,4.63
2022-11-14T03:49:55.816Z,4.67
2022-11-14T03:53:00.277Z,4.82
2022-11-14T03:56:03.333Z,5.02
2022-11-14T03:59:06.669Z,5.11
2022-11-14T04:02:09.786Z,5.26
2022-11-14T04:05:13.266Z,5.34
2022-11-14T04:08:17.473Z,5.45
2022-11-14T04:11:20.699Z,5.60
2022-11-14T04:14:23.413Z,5.58
2022-11-14T04:17:26.539Z,5.61
2022-11-14T04:20:29.196Z,5.65
2022-11-14T04:23:33.817Z,5.80
2022-11-14T04:26:36.483Z,5.76
2022-11-14T04:29:39.200Z,5.80
2022-11-14T04:32:41.916Z,5.84
2022-11-14T04:35:44.731Z,5.90
2022-11-14T04:38:49.188Z,5.91
2022-11-14T04:41:52.231Z,5.92
2022-11-14T04:44:55.374Z,6.00
2022-11-14T04:47:58.057Z,6.03
2022-11-14T04:51:00.984Z,6.00
2022-11-14T04:54:05.241Z,6.09
2022-11-14T04:57:07.952Z,6.01
2022-11-14T05:00:11.983Z,6.04
2022-11-14T05:03:14.912Z,6.11
2022-11-14T05:06:18.065Z,6.15
2022-11-14T05:09:22.082Z,6.15
2022-11-14T05:12:25.113Z,6.23
2022-11-14T05:15:27.827Z,6.15
2022-11-14T05:18:31.118Z,6.15
2022-11-14T05:21:34.118Z,6.17
2022-11-14T05:24:38.720Z,6.27
2022-11-14T05:27:41.733Z,6.28
2022-11-14T05:30:44.413Z,6.19
2022-11-14T05:33:48.291Z,6.15
2022-11-14T05:36:51.016Z,6.28
2022-11-14T05:39:55.551Z,6.31
2022-11-14T05:42:58.271Z,6.25
2022-11-14T05:46:02.162Z,6.33
2022-11-14T05:49:04.885Z,6.28
2022-11-14T05:52:07.950Z,6.37
2022-11-14T05:55:12.418Z,6.33
2022-11-14T05:58:15.216Z,6.48
2022-11-14T06:01:20.527Z,6.48
2022-11-14T06:04:23.639Z,6.41
2022-11-14T06:07:26.372Z,6.43
2022-11-14T06:10:30.938Z,6.29
2022-11-14T06:13:34.764Z,6.31
2022-11-14T06:16:37.503Z,6.23
2022-11-14T06:19:40.212Z,6.38
2022-11-14T06:22:43.102Z,6.55
2022-11-14T06:25:47.180Z,6.46
2022-11-14T06:28:50.778Z,6.58
2022-11-14T06:31:53.453Z,6.58
2022-11-14T06:34:56.306Z,6.50
2022-11-14T06:38:00.863Z,6.57
2022-11-14T06:41:06.150Z,6.61
2022-11-14T06:44:09.661Z,6.68
2022-11-14T06:47:12.652Z,6.78
2022-11-14T06:50:15.448Z,6.72
2022-11-14T06:53:18.204Z,6.70
2022-11-14T06:56:22.629Z,6.95
2022-11-14T06:59:26.267Z,6.93
2022-11-14T07:02:29.001Z,6.86
2022-11-14T07:05:31.748Z,6.76
2022-11-14T07:08:35.389Z,6.67
2022-11-14T07:11:39.963Z,6.53
2022-11-14T07:14:42.702Z,6.53
2022-11-14T07:17:45.475Z,6.57
2022-11-14T07:20:48.720Z,6.54
2022-11-14T07:23:51.818Z,6.64
2022-11-14T07:26:55.839Z,6.67
2022-11-14T07:29:58.843Z,6.89
2022-11-14T07:33:01.934Z,6.83
2022-11-14T07:36:05.212Z,6.80
2022-11-14T07:39:08.175Z,6.85
2022-11-14T07:42:12.294Z,6.91
2022-11-14T07:45:15.802Z,6.99
2022-11-14T07:48:19.464Z,7.01
2022-11-14T07:51:22.577Z,7.26
2022-11-14T07:54:25.313Z,7.08
2022-11-14T07:57:29.431Z,7.04
2022-11-14T08:00:32.700Z,7.15
2022-11-14T08:03:37.919Z,7.18
2022-11-14T08:06:44.193Z,7.26
2022-11-14T08:09:46.921Z,7.38
2022-11-14T08:13:17.485Z,7.48
2022-11-14T08:16:22.342Z,7.48
2022-11-14T08:19:26.486Z,7.49
2022-11-14T08:22:29.409Z,7.54
2022-11-14T08:25:32.095Z,7.58
2022-11-14T08:28:36.588Z,7.61
2022-11-14T08:31:39.394Z,7.67
2022-11-14T08:34:42.361Z,7.88
2022-11-14T08:37:45.525Z,7.79
2022-11-14T08:40:48.397Z,7.74
2022-11-14T08:43:52.803Z,7.86
2022-11-14T08:46:55.545Z,8.13
2022-11-14T08:49:58.417Z,7.98
2022-11-14T08:53:01.177Z,7.88
2022-11-14T08:56:04.429Z,7.87
2022-11-14T08:59:08.413Z,8.07
2022-11-14T09:02:12.460Z,8.05
2022-11-14T09:05:15.507Z,8.03
2022-11-14T09:08:18.336Z,8.14
2022-11-14T09:11:21.259Z,8.28
2022-11-14T09:14:25.963Z,8.31
2022-11-14T09:17:28.784Z,8.43
2022-11-14T09:20:34.178Z,8.39
2022-11-14T09:23:40.365Z,8.46
2022-11-14T09:26:43.091Z,8.57
2022-11-14T09:29:47.591Z,8.60
2022-11-14T09:32:50.371Z,8.67
2022-11-14T09:35:57.966Z,8.72
2022-11-14T09:39:00.739Z,8.91
2022-11-14T09:42:20.291Z,8.96
2022-11-14T09:45:25.391Z,9.05
2022-11-14T09:48:32.160Z,9.06
2022-11-14T09:51:44.143Z,9.04
2022-11-14T09:54:53.073Z,9.09
2022-11-14T09:57:56.515Z,9.01
2022-11-14T10:01:09.499Z,8.93
2022-11-14T10:04:25.052Z,8.89
2022-11-14T10:07:39.076Z,8.89
2022-11-14T10:10:52.916Z,8.82
2022-11-14T10:14:20.587Z,8.79
2022-11-14T10:17:45.791Z,8.91
2022-11-14T10:20:55.034Z,9.17
2022-11-14T10:24:07.359Z,9.34
2022-11-14T10:27:19.523Z,9.60
2022-11-14T10:30:36.720Z,9.84
2022-11-14T10:33:51.635Z,9.63
2022-11-14T10:37:04.188Z,9.57
2022-11-14T10:40:18.920Z,9.70
2022-11-14T10:43:28.411Z,9.43
2022-11-14T10:46:37.963Z,9.32
2022-11-14T10:49:43.320Z,9.46
2022-11-14T10:52:47.601Z,9.76
2022-11-14T10:56:04.324Z,9.73
2022-11-14T10:59:10.178Z,9.84
2022-11-14T11:02:13.097Z,10.12
2022-11-14T11:05:19.555Z,10.22
2022-11-14T11:08:43.784Z,10.15
2022-11-14T11:11:57.340Z,9.94
2022-11-14T11:15:15.987Z,9.70
2022-11-14T11:18:27.852Z,9.50
2022-11-14T11:21:48.832Z,9.41
2022-11-14T11:24:51.682Z,9.51
2022-11-14T11:28:09.265Z,9.73
2022-11-14T11:31:12.475Z,9.98
2022-11-14T11:34:15.271Z,10.54
2022-11-14T11:37:22.994Z,10.67
2022-11-14T11:40:28.139Z,10.78
2022-11-14T11:43:53.921Z,10.61
2022-11-14T11:47:02.052Z,10.58
2022-11-14T11:50:06.120Z,10.55
2022-11-14T11:53:19.433Z,10.29
2022-11-14T11:56:26.961Z,10.11
2022-11-14T11:59:35.841Z,9.98
2022-11-14T12:02:49.502Z,10.07
2022-11-14T12:06:03.898Z,10.12
2022-11-14T12:09:16.403Z,10.28
2022-11-14T12:12:28.662Z,10.13
2022-11-14T12:15:44.777Z,10.39
2022-11-14T12:19:10.385Z,10.31
2022-11-14T12:22:44.809Z,10.36
2022-11-14T12:26:07.676Z,10.42
2022-11-14T12:29:32.064Z,10.62
2022-11-14T12:32:40.051Z,10.83
2022-11-14T12:35:52.431Z,11.17
2022-11-14T12:38:56.911Z,11.19
2022-11-14T12:42:06.489Z,11.17
2022-11-14T12:45:42.521Z,11.52
2022-11-14T12:48:46.404Z,11.42
2022-11-14T12:51:51.300Z,11.23
2022-11-14T12:54:54.054Z,11.25
2022-11-14T12:58:07.150Z,11.12
2022-11-14T13:01:24.471Z,11.20
2022-11-14T13:04:37.235Z,11.33
2022-11-14T13:07:49.351Z,11.56
2022-11-14T13:10:52.259Z,11.38
2022-11-14T13:14:20.630Z,11.43
2022-11-14T13:17:45.060Z,11.34
2022-11-14T13:21:13.662Z,11.28
2022-11-14T13:24:17.242Z,11.25
2022-11-14T13:27:52.347Z,11.14
2022-11-14T13:31:20.829Z,11.05
2022-11-14T13:34:37.277Z,11.19
2022-11-14T13:38:09.644Z,11.01
2022-11-14T13:41:46.691Z,10.98
2022-11-14T13:45:15.271Z,10.94
2022-11-14T13:48:47.657Z,10.86
2022-11-14T13:51:53.783Z,10.70
2022-11-14T13:54:56.996Z,10.55
2022-11-14T13:58:15.661Z,10.61
2022-11-14T14:01:40.091Z,10.60
2022-11-14T14:04:54.936Z,10.56
2022-11-14T14:08:12.535Z,10.66
2022-11-14T14:11:35.093Z,10.69
2022-11-14T14:14:57.125Z,10.75
2022-11-14T14:18:09.253Z,10.69
2022-11-14T14:21:26.657Z,10.82
2022-11-14T14:24:47.018Z,10.74
2022-11-14T14:28:02.670Z,10.81
2022-11-14T14:31:12.148Z,10.59
2022-11-14T14:34:23.616Z,10.60
2022-11-14T14:37:29.700Z,10.43
2022-11-14T14:40:34.466Z,10.47
2022-11-14T14:43:38.016Z,10.45
2022-11-14T14:46:40.841Z,10.45
2022-11-14T14:49:44.284Z,10.39
2022-11-14T14:52:56.656Z,10.33
2022-11-14T14:56:02.219Z,10.33
2022-11-14T14:59:17.304Z,10.28
2022-11-14T15:02:27.783Z,10.32
2022-11-14T15:05:31.096Z,10.33
2022-11-14T15:08:38.707Z,10.35
2022-11-14T15:11:44.388Z,10.14
2022-11-14T15:14:48.662Z,10.10
2022-11-14T15:17:51.865Z,10.21
2022-11-14T15:21:11.814Z,10.24
2022-11-14T15:24:18.645Z,10.28
2022-11-14T15:27:22.168Z,10.25
2022-11-14T15:30:26.939Z,10.25
2022-11-14T15:33:32.503Z,10.26
2022-11-14T15:36:35.327Z,10.35
2022-11-14T15:39:39.738Z,10.32
2022-11-14T15:42:42.709Z,10.32
2022-11-14T15:45:45.475Z,10.32
2022-11-14T15:48:48.323Z,10.24
2022-11-14T15:51:54.538Z,10.23
2022-11-14T15:54:58.639Z,10.16
2022-11-14T15:58:29.210Z,10.39
2022-11-14T16:01:26.319Z,10.38
2022-11-14T16:04:33.265Z,10.46
2022-11-14T16:07:36.199Z,10.58
2022-11-14T16:10:40.924Z,10.54
2022-11-14T16:13:43.655Z,10.40
2022-11-14T16:16:46.450Z,10.43
2022-11-14T16:19:49.215Z,10.51
2022-11-14T16:22:53.946Z,10.49
2022-11-14T16:25:57.967Z,10.33
2022-11-14T16:29:00.980Z,10.58
2022-11-14T16:32:03.738Z,10.41
2022-11-14T16:35:08.511Z,10.28
2022-11-14T16:38:13.683Z,10.51
2022-11-14T16:41:18.272Z,10.49
2022-11-14T16:44:21.867Z,10.47
2022-11-14T16:47:24.662Z,10.58
2022-11-14T16:50:27.791Z,10.53
2022-11-14T16:53:30.868Z,10.43
2022-11-14T16:56:35.229Z,10.53
2022-11-14T16:59:38.059Z,10.52
2022-11-14T17:02:41.600Z,10.50
2022-11-14T17:05:45.715Z,10.22
2022-11-14T17:08:48.729Z,10.47
2022-11-14T17:11:53.069Z,10.48
2022-11-14T17:14:55.795Z,10.44
2022-11-14T17:17:58.891Z,10.50
2022-11-14T17:21:05.839Z,10.40
2022-11-14T17:24:08.796Z,10.50
2022-11-14T17:27:13.774Z,10.42
2022-11-14T17:30:17.583Z,10.40
2022-11-14T17:33:20.368Z,10.42
2022-11-14T17:36:24.149Z,10.50
2022-11-14T17:39:27.219Z,10.41
2022-11-14T17:42:31.313Z,10.32
2022-11-14T17:45:37.879Z,10.40
2022-11-14T17:48:43.545Z,10.36
2022-11-14T17:51:46.623Z,10.37
2022-11-14T17:54:49.321Z,10.38
2022-11-14T17:57:53.514Z,10.48
2022-11-14T18:00:58.603Z,10.45
2022-11-14T18:04:06.112Z,10.41
2022-11-14T18:07:09.734Z,10.43
2022-11-14T18:10:12.746Z,10.38
2022-11-14T18:13:17.121Z,10.33
2022-11-14T18:16:21.453Z,10.22
2022-11-14T18:19:24.295Z,9.94
2022-11-14T18:22:27.709Z,9.94
2022-11-14T18:25:31.440Z,9.89
2022-11-14T18:28:35.548Z,9.80
2022-11-14T18:31:38.237Z,9.69
2022-11-14T18:34:42.023Z,9.67
2022-11-14T18:37:44.751Z,9.56
2022-11-14T18:40:50.643Z,9.49
2022-11-14T18:43:58.032Z,9.46
2022-11-14T18:47:00.808Z,9.30
2022-11-14T18:50:03.914Z,9.29
2022-11-14T18:53:06.717Z,9.23
2022-11-14T18:56:11.619Z,9.30
2022-11-14T18:59:15.684Z,9.21
2022-11-14T19:02:18.673Z,9.16
2022-11-14T19:05:21.467Z,9.15
2022-11-14T19:08:24.230Z,9.33
2022-11-14T19:11:45.380Z,9.33
2022-11-14T19:14:51.638Z,9.29
2022-11-14T19:17:54.433Z,9.14
2022-11-14T19:20:58.479Z,9.09
2022-11-14T19:24:01.340Z,9.01
2022-11-14T19:27:04.251Z,8.96
2022-11-14T19:30:09.967Z,8.95
2022-11-14T19:33:12.999Z,8.91
2022-11-14T19:36:32.332Z,8.80
2022-11-14T19:39:41.645Z,8.78
2022-11-14T19:42:45.102Z,8.68
2022-11-14T19:45:49.796Z,8.83
2022-11-14T19:48:56.933Z,8.68
2022-11-14T19:52:00.471Z,8.73
2022-11-14T19:55:04.576Z,8.68
2022-11-14T19:58:07.625Z,8.51
2022-11-14T20:01:13.545Z,8.59
2022-11-14T20:04:16.363Z,8.67
2022-11-14T20:07:19.179Z,8.72
2022-11-14T20:10:22.016Z,8.72
2022-11-14T20:13:24.938Z,8.60
2022-11-14T20:16:31.081Z,8.63
2022-11-14T20:19:33.839Z,8.62
2022-11-14T20:22:36.611Z,8.54
2022-11-14T20:25:40.599Z,8.34
2022-11-14T20:33:07.357Z,8.35
2022-11-14T20:36:13.835Z,8.33
2022-11-14T20:39:16.678Z,8.43
2022-11-14T20:42:19.452Z,8.48
2022-11-14T20:45:23.989Z,8.30
2022-11-14T20:48:30.165Z,8.37
2022-11-14T20:51:33.392Z,8.41
2022-11-14T20:54:36.667Z,8.24
2022-11-14T20:57:39.737Z,8.25
2022-11-14T21:00:45.113Z,8.35
2022-11-14T21:03:50.087Z,8.30
2022-11-14T21:06:53.138Z,8.26
2022-11-14T21:10:09.857Z,8.10
2022-11-14T21:13:31.209Z,8.19
2022-11-14T21:16:37.042Z,8.21
2022-11-14T21:19:41.418Z,8.21
2022-11-14T21:22:44.442Z,8.07
2022-11-14T21:25:47.223Z,8.09
2022-11-14T21:28:52.362Z,8.07
2022-11-14T21:31:55.693Z,8.08
2022-11-14T21:34:59.831Z,8.01
2022-11-14T21:38:03.308Z,7.97
2022-11-14T21:41:06.651Z,7.93
2022-11-14T21:44:13.130Z,8.01
2022-11-14T21:47:16.348Z,8.01
2022-11-14T21:50:20.540Z,7.96
2022-11-14T21:53:23.674Z,7.93
2022-11-14T21:56:29.049Z,8.03
2022-11-14T21:59:32.127Z,8.10
2022-11-14T22:02:52.669Z,8.21
2022-11-14T22:05:59.790Z,8.03
2022-11-14T22:09:02.582Z,8.26
2022-11-14T22:12:05.815Z,8.36
2022-11-14T22:15:09.615Z,8.35
2022-11-14T22:22:05.982Z,8.26
2022-11-14T22:25:09.988Z,8.17
2022-11-14T22:28:12.707Z,8.09
2022-11-14T22:31:17.205Z,8.25
2022-11-14T22:34:20.650Z,8.20
2022-11-14T22:37:24.725Z,8.04
2022-11-14T22:40:27.698Z,8.23
2022-11-14T22:43:32.215Z,8.22
2022-11-14T22:46:35.075Z,8.22
2022-11-14T22:49:37.826Z,8.09
2022-11-14T22:52:41.857Z,7.89
2022-11-14T22:55:48.904Z,7.80
2022-11-14T22:58:52.037Z,7.79
2022-11-14T23:01:56.259Z,7.79
2022-11-14T23:04:59.002Z,7.98
2022-11-14T23:08:03.469Z,7.87
2022-11-14T23:11:08.424Z,7.88
2022-11-14T23:14:14.371Z,7.90
2022-11-14T23:17:17.240Z,7.83
2022-11-14T23:20:20.669Z,7.84
2022-11-14T23:23:24.958Z,7.77
2022-11-14T23:26:29.020Z,7.55
2022-11-14T23:29:32.103Z,7.58
2022-11-14T23:32:35.177Z,7.53
2022-11-14T23:35:37.908Z,7.55
2022-11-14T23:38:42.313Z,7.69
2022-11-14T23:41:45.355Z,7.59
2022-11-14T23:44:48.441Z,7.52
2022-11-14T23:47:51.128Z,7.46
2022-11-14T23:50:55.887Z,7.44
2022-11-14T23:54:00.323Z,7.42
2022-11-14T23:57:04.786Z,7.52
